.
WxDataArchive / Data Records for 2011-01-12
2011-01-11 January 2011 2011-01-13

Data Records for Wednesday, 12 January 2011

Time	Temp	Chill	HIndex	Humid	Dewpt	 Wind 	HiWind	WindDir	Rain 	Barom 
-----	----	-----	------	-----	-----	------	------	-------	-----	----- 
00:00	22.7	22.7	22.7	89	20.0	1	3	248	0.00	30.031 
00:05	22.9	22.9	22.9	89	20.2	1	3	248	0.00	30.031 
00:10	22.9	22.9	22.9	89	20.2	1	4	225	0.00	30.031 
00:15	22.9	22.9	22.9	89	20.2	0	3	225	0.00	30.034 
00:20	22.9	22.9	22.9	89	20.2	0	2	270	0.00	30.034 
00:25	23.0	23.0	23.0	89	20.3	1	2	270	0.00	30.034 
00:30	23.0	23.0	23.0	89	20.3	1	3	338	0.00	30.039 
00:35	23.0	23.0	23.0	89	20.3	0	2	338	0.00	30.039 
00:40	23.0	23.0	23.0	89	20.3	0	2	315	0.00	30.039 
00:45	23.0	23.0	23.0	89	20.3	0	2	315	0.00	30.041 
00:50	23.2	23.2	23.2	89	20.4	0	2	315	0.00	30.041 
00:55	23.2	23.2	23.2	89	20.4	1	3	270	0.00	30.041 
01:00	23.2	23.2	23.2	89	20.4	1	3	338	0.00	30.044 
01:05	23.3	23.3	23.3	89	20.5	1	3	338	0.00	30.044 
01:10	23.3	23.3	23.3	89	20.5	0	2	315	0.00	30.044 
01:15	23.3	23.3	23.3	88	20.3	0	1	315	0.00	30.047 
01:20	23.3	23.3	23.3	88	20.3	1	3	315	0.00	30.047 
01:25	23.5	23.5	23.5	88	20.5	1	3	315	0.00	30.047 
01:30	23.5	23.5	23.5	88	20.5	1	3	270	0.00	30.052 
01:35	23.6	23.6	23.6	88	20.6	1	3	338	0.00	30.052 
01:40	23.6	23.6	23.6	88	20.6	1	3	0	0.00	30.052 
01:45	23.6	23.6	23.6	88	20.6	1	2	270	0.00	30.056 
01:50	23.6	23.6	23.6	88	20.6	1	4	270	0.00	30.056 
01:55	23.8	23.8	23.8	88	20.8	1	3	270	0.00	30.056 
02:00	23.8	23.8	23.8	88	20.8	1	2	292	0.00	30.065 
02:05	23.8	23.8	23.8	88	20.8	0	3	292	0.00	30.065 
02:10	23.8	23.8	23.8	88	20.8	0	2	292	0.00	30.065 
02:15	23.9	23.9	23.9	88	20.9	1	3	292	0.00	30.071 
02:20	23.9	23.9	23.9	88	20.9	1	3	338	0.00	30.071 
02:25	24.1	24.1	24.1	88	21.1	0	3	270	0.00	30.071 
02:30	24.1	24.1	24.1	88	21.1	1	2	270	0.00	30.082 
02:35	24.1	24.1	24.1	88	21.1	1	2	225	0.00	30.082 
02:40	24.1	24.1	24.1	88	21.1	0	2	315	0.00	30.082 
02:45	24.1	24.1	24.1	88	21.1	1	2	270	0.00	30.089 
02:50	24.2	24.2	24.2	88	21.2	1	3	338	0.00	30.089 
02:55	24.2	24.2	24.2	88	21.2	1	2	248	0.00	30.089 
03:00	24.4	24.4	24.4	88	21.4	0	3	248	0.00	30.100 
03:05	24.4	24.4	24.4	88	21.4	1	2	248	0.00	30.100 
03:10	24.5	24.5	24.5	88	21.5	1	3	270	0.00	30.100 
03:15	24.7	24.7	24.7	88	21.7	1	3	315	0.00	30.108 
03:20	24.7	24.7	24.7	88	21.7	1	3	315	0.00	30.108 
03:25	24.7	24.7	24.7	87	21.4	1	2	338	0.00	30.108 
03:30	24.7	24.7	24.7	87	21.4	1	4	315	0.00	30.112 
03:35	24.7	24.7	24.7	87	21.4	1	4	270	0.00	30.112 
03:40	24.7	24.7	24.7	87	21.4	1	3	315	0.00	30.112 
03:45	24.7	24.7	24.7	86	21.1	1	4	315	0.00	30.115 
03:50	24.7	24.7	24.7	86	21.1	1	3	248	0.00	30.115 
03:55	24.7	24.7	24.7	86	21.1	1	4	292	0.00	30.115 
04:00	24.7	24.7	24.7	86	21.1	1	4	292	0.00	30.122 
04:05	24.7	24.7	24.7	86	21.1	0	2	338	0.00	30.122 
04:10	24.7	24.7	24.7	86	21.1	1	2	270	0.00	30.122 
04:15	24.7	24.7	24.7	86	21.1	0	2	338	0.00	30.133 
04:20	24.7	24.7	24.7	86	21.1	1	2	338	0.00	30.133 
04:25	24.7	24.7	24.7	86	21.1	1	2	270	0.00	30.133 
04:30	24.7	24.7	24.7	86	21.1	0	2	270	0.00	30.133 
04:35	24.7	24.7	24.7	85	20.8	1	3	270	0.00	30.133 
04:40	24.7	24.7	24.7	85	20.8	1	2	338	0.00	30.133 
04:45	24.7	24.7	24.7	85	20.8	1	3	248	0.00	30.134 
04:50	24.7	24.7	24.7	86	21.1	1	2	338	0.00	30.134 
04:55	24.5	24.5	24.5	86	20.9	0	2	338	0.00	30.134 
05:00	24.5	24.5	24.5	86	20.9	1	3	338	0.00	30.135 
05:05	24.5	24.5	24.5	86	20.9	0	2	315	0.00	30.135 
05:10	24.4	24.4	24.4	86	20.8	0	2	315	0.00	30.135 
05:15	24.4	24.4	24.4	86	20.8	0	2	315	0.00	30.141 
05:20	24.4	24.4	24.4	86	20.8	1	2	315	0.00	30.141 
05:25	24.4	24.4	24.4	86	20.8	1	2	338	0.00	30.141 
05:30	24.4	24.4	24.4	86	20.8	0	2	338	0.00	30.149 
05:35	24.4	24.4	24.4	86	20.8	0	1	338	0.00	30.149 
05:40	24.2	24.2	24.2	86	20.6	0	1	338	0.00	30.149 
05:45	24.2	24.2	24.2	86	20.6	0	2	338	0.00	30.150 
05:50	24.2	24.2	24.2	86	20.6	1	2	270	0.00	30.150 
05:55	24.1	24.1	24.1	86	20.5	0	2	270	0.00	30.150 
06:00	23.9	23.9	23.9	86	20.3	0	3	292	0.00	30.154 
06:05	23.8	23.8	23.8	86	20.2	0	1	315	0.00	30.154 
06:10	23.6	23.6	23.6	86	20.0	0	2	225	0.00	30.154 
06:15	23.6	23.6	23.6	86	20.0	0	1	225	0.00	30.157 
06:20	23.6	23.6	23.6	86	20.0	0	2	225	0.00	30.157 
06:25	23.6	23.6	23.6	86	20.0	0	4	270	0.00	30.157 
06:30	23.6	23.6	23.6	86	20.0	0	2	270	0.00	30.160 
06:35	23.5	23.5	23.5	86	19.9	0	1	270	0.00	30.160 
06:40	23.5	23.5	23.5	86	19.9	0	2	270	0.00	30.160 
06:45	23.3	23.3	23.3	87	20.0	0	1	270	0.00	30.167 
06:50	23.3	23.3	23.3	87	20.0	0	2	270	0.00	30.167 
06:55	23.3	23.3	23.3	87	20.0	1	2	270	0.00	30.167 
07:00	23.3	23.3	23.3	87	20.0	1	2	315	0.00	30.172 
07:05	23.3	23.3	23.3	87	20.0	1	2	315	0.00	30.172 
07:10	23.3	23.3	23.3	86	19.7	0	2	338	0.00	30.172 
07:15	23.2	23.2	23.2	86	19.6	0	2	315	0.00	30.180 
07:20	23.0	23.0	23.0	86	19.4	1	3	292	0.00	30.180 
07:25	23.0	23.0	23.0	86	19.4	1	3	270	0.00	30.180 
07:30	22.9	22.9	22.9	86	19.4	1	2	270	0.00	30.184 
07:35	22.9	22.9	22.9	85	19.1	1	3	270	0.00	30.184 
07:40	22.7	22.7	22.7	85	18.9	0	1	338	0.00	30.184 
07:45	22.5	22.5	22.5	85	18.7	1	2	338	0.00	30.194 
07:50	22.4	22.4	22.4	85	18.6	0	1	248	0.00	30.194 
07:55	22.4	22.4	22.4	85	18.6	1	3	248	0.00	30.194 
08:00	22.4	22.4	22.4	85	18.6	0	2	248	0.00	30.203 
08:05	22.2	22.2	22.2	85	18.4	1	3	248	0.00	30.203 
08:10	22.1	22.1	22.1	85	18.3	0	2	248	0.00	30.203 
08:15	21.9	21.9	21.9	85	18.1	1	3	248	0.00	30.212 
08:20	21.8	21.8	21.8	85	18.0	0	2	248	0.00	30.212 
08:25	21.6	21.6	21.6	86	18.1	0	2	248	0.00	30.212 
08:30	21.6	21.6	21.6	86	18.1	0	3	315	0.00	30.218 
08:35	21.4	21.4	21.4	86	17.9	1	2	292	0.00	30.218 
08:40	21.3	21.3	21.3	86	17.8	1	3	338	0.00	30.218 
08:45	21.1	21.1	21.1	86	17.6	0	2	338	0.00	30.227 
08:50	21.1	21.1	21.1	86	17.6	0	2	338	0.00	30.227 
08:55	21.1	21.1	21.1	86	17.6	1	2	315	0.00	30.227 
09:00	21.3	21.3	21.3	86	17.8	0	2	270	0.00	30.239 
09:05	21.3	21.3	21.3	86	17.8	0	1	248	0.00	30.239 
09:10	21.4	21.4	21.4	86	17.9	0	2	292	0.00	30.239 
09:15	21.6	21.6	21.6	86	18.1	1	2	270	0.00	30.247 
09:20	21.8	21.8	21.8	86	18.3	0	4	338	0.00	30.247 
09:25	21.9	21.9	21.9	86	18.4	1	3	270	0.00	30.247 
09:30	21.9	21.9	21.9	85	18.1	0	2	338	0.00	30.249 
09:35	22.1	22.1	22.1	85	18.3	1	3	315	0.00	30.249 
09:40	22.2	22.2	22.2	85	18.4	1	3	315	0.00	30.249 
09:45	22.4	22.4	22.4	84	18.3	1	3	315	0.00	30.255 
09:50	22.5	22.5	22.5	84	18.4	0	2	315	0.00	30.255 
09:55	22.5	22.5	22.5	83	18.1	1	2	292	0.00	30.255 
10:00	22.7	22.7	22.7	83	18.3	1	2	292	0.00	30.262 
10:05	22.9	22.9	22.9	83	18.5	1	3	338	0.00	30.262 
10:10	23.0	23.0	23.0	82	18.3	1	3	338	0.00	30.262 
10:15	23.2	23.2	23.2	82	18.5	0	3	248	0.00	30.263 
10:20	23.5	23.5	23.5	81	18.5	0	2	338	0.00	30.263 
10:25	23.6	23.6	23.6	81	18.6	1	2	270	0.00	30.263 
10:30	23.6	23.6	23.6	80	18.4	1	4	338	0.00	30.270 
10:35	23.8	23.8	23.8	79	18.3	1	3	270	0.00	30.270 
10:40	23.9	23.9	23.9	79	18.4	1	3	292	0.00	30.270 
10:45	24.1	24.1	24.1	79	18.5	1	3	292	0.00	30.275 
10:50	24.2	24.2	24.2	78	18.3	1	5	338	0.00	30.275 
10:55	24.4	24.4	24.4	77	18.2	1	5	248	0.00	30.275 
11:00	24.4	24.4	24.4	77	18.2	2	4	338	0.00	30.277 
11:05	24.4	24.4	24.4	76	17.9	2	4	270	0.00	30.277 
11:10	24.7	24.7	24.7	76	18.2	1	4	292	0.00	30.277 
11:15	24.7	24.7	24.7	75	17.9	2	4	315	0.00	30.275 
11:20	24.8	24.8	24.8	75	18.0	2	4	270	0.00	30.275 
11:25	24.8	24.8	24.8	74	17.7	1	6	292	0.00	30.275 
11:30	25.0	25.0	25.0	74	17.9	2	5	248	0.00	30.275 
11:35	25.1	25.1	25.1	73	17.7	2	4	292	0.00	30.275 
11:40	25.3	25.3	25.3	72	17.6	1	4	315	0.00	30.275 
11:45	25.4	25.4	25.4	72	17.7	1	4	315	0.00	30.273 
11:50	25.7	25.7	25.7	71	17.6	2	4	270	0.00	30.273 
11:55	25.7	25.7	25.7	70	17.3	2	4	338	0.00	30.273 
12:00	25.8	25.8	25.8	69	17.1	2	4	338	0.00	30.262 
12:05	26.0	26.0	26.0	69	17.2	1	4	248	0.00	30.262 
12:10	26.3	26.3	26.3	69	17.5	1	3	270	0.00	30.262 
12:15	26.6	26.6	26.6	69	17.8	1	3	315	0.00	30.258 
12:20	26.6	26.6	26.6	67	17.1	2	4	270	0.00	30.258 
12:25	26.9	26.9	26.9	68	17.8	1	3	270	0.00	30.258 
12:30	27.0	27.0	27.0	68	17.9	1	3	270	0.00	30.252 
12:35	27.0	27.0	27.0	68	17.9	2	4	225	0.00	30.252 
12:40	27.0	27.0	27.0	66	17.2	3	5	270	0.00	30.252 
12:45	27.2	27.2	27.2	66	17.4	2	5	315	0.00	30.248 
12:50	27.2	27.2	27.2	66	17.4	3	5	248	0.00	30.248 
12:55	27.3	27.3	27.3	66	17.5	3	5	270	0.00	30.248 
13:00	27.5	27.5	27.5	66	17.7	3	6	270	0.00	30.244 
13:05	27.5	22.9	27.5	65	17.3	4	9	270	0.00	30.244 
13:10	27.5	27.5	27.5	65	17.3	3	6	270	0.00	30.244 
13:15	27.5	27.5	27.5	65	17.3	2	5	270	0.00	30.241 
13:20	27.8	27.8	27.8	64	17.2	3	6	270	0.00	30.241 
13:25	27.9	27.9	27.9	63	17.0	3	7	315	0.00	30.241 
13:30	27.9	27.9	27.9	64	17.3	3	4	270	0.00	30.241 
13:35	28.2	28.2	28.2	64	17.6	2	7	270	0.00	30.241 
13:40	28.1	28.1	28.1	63	17.2	3	7	270	0.00	30.241 
13:45	28.2	28.2	28.2	64	17.6	3	5	270	0.00	30.243 
13:50	28.4	28.4	28.4	63	17.4	3	5	315	0.00	30.243 
13:55	28.2	28.2	28.2	63	17.2	3	6	270	0.00	30.243 
14:00	28.4	28.4	28.4	63	17.4	3	6	270	0.00	30.241 
14:05	28.7	28.7	28.7	63	17.7	3	6	315	0.00	30.241 
14:10	28.5	24.0	28.5	64	17.9	4	6	270	0.00	30.241 
14:15	28.4	22.8	28.4	64	17.8	5	10	270	0.00	30.243 
14:20	27.9	27.9	27.9	65	17.7	3	7	270	0.00	30.243 
14:25	27.9	23.3	27.9	65	17.7	4	7	270	0.00	30.243 
14:30	27.9	23.3	27.9	66	18.0	4	7	270	0.00	30.245 
14:35	28.1	28.1	28.1	66	18.2	3	6	270	0.00	30.245 
14:40	28.1	23.6	28.1	66	18.2	4	9	270	0.00	30.245 
14:45	27.9	23.3	27.9	67	18.4	4	7	270	0.00	30.249 
14:50	28.2	28.2	28.2	67	18.7	3	6	270	0.00	30.249 
14:55	28.4	23.9	28.4	67	18.9	4	6	270	0.00	30.249 
15:00	28.4	28.4	28.4	67	18.9	3	7	270	0.00	30.255 
15:05	28.5	28.5	28.5	68	19.3	3	5	270	0.00	30.255 
15:10	28.5	28.5	28.5	68	19.3	3	7	292	0.00	30.255 
15:15	28.4	28.4	28.4	68	19.2	3	6	270	0.00	30.259 
15:20	28.7	24.3	28.7	68	19.5	4	9	270	0.00	30.259 
15:25	28.8	28.8	28.8	68	19.6	3	6	270	0.00	30.259 
15:30	28.8	28.8	28.8	68	19.6	3	7	270	0.00	30.269 
15:35	28.8	28.8	28.8	68	19.6	3	6	292	0.00	30.269 
15:40	28.8	28.8	28.8	68	19.6	3	7	270	0.00	30.269 
15:45	28.7	28.7	28.7	68	19.5	3	9	270	0.00	30.278 
15:50	28.8	28.8	28.8	69	19.9	3	6	292	0.00	30.278 
15:55	28.8	28.8	28.8	69	19.9	2	4	270	0.00	30.278 
16:00	28.8	28.8	28.8	68	19.6	2	5	270	0.00	30.285 
16:05	28.8	28.8	28.8	69	19.9	3	6	270	0.00	30.285 
16:10	28.7	28.7	28.7	69	19.8	2	4	292	0.00	30.285 
16:15	28.7	28.7	28.7	69	19.8	3	6	270	0.00	30.290 
16:20	28.5	28.5	28.5	70	20.0	3	6	270	0.00	30.290 
16:25	28.5	28.5	28.5	70	20.0	3	6	270	0.00	30.290 
16:30	28.7	28.7	28.7	70	20.2	3	5	270	0.00	30.300 
16:35	28.7	28.7	28.7	70	20.2	2	6	315	0.00	30.300 
16:40	28.7	28.7	28.7	70	20.2	1	4	292	0.00	30.300 
16:45	28.7	28.7	28.7	70	20.2	2	5	292	0.00	30.302 
16:50	28.5	28.5	28.5	70	20.0	2	5	338	0.00	30.302 
16:55	28.4	28.4	28.4	70	19.9	3	7	270	0.00	30.302 
17:00	28.2	23.7	28.2	71	20.0	4	6	270	0.00	30.306 
17:05	28.1	28.1	28.1	71	19.9	2	4	338	0.00	30.306 
17:10	27.9	27.9	27.9	72	20.1	2	3	270	0.00	30.306 
17:15	27.6	27.6	27.6	73	20.1	2	4	270	0.00	30.317 
17:20	27.5	27.5	27.5	73	20.0	3	5	270	0.00	30.317 
17:25	27.2	27.2	27.2	74	20.0	2	3	248	0.00	30.317 
17:30	27.0	27.0	27.0	75	20.2	2	4	270	0.00	30.322 
17:35	26.9	26.9	26.9	75	20.1	2	3	248	0.00	30.322 
17:40	26.7	26.7	26.7	76	20.2	2	5	248	0.00	30.322 
17:45	26.6	26.6	26.6	76	20.1	1	4	270	0.00	30.330 
17:50	26.4	26.4	26.4	77	20.2	2	4	270	0.00	30.330 
17:55	26.3	26.3	26.3	77	20.1	1	3	270	0.00	30.330 
18:00	26.3	26.3	26.3	78	20.4	2	3	225	0.00	30.336 
18:05	26.1	26.1	26.1	78	20.2	1	3	225	0.00	30.336 
18:10	26.0	26.0	26.0	79	20.4	1	3	225	0.00	30.336 
18:15	25.8	25.8	25.8	79	20.2	1	2	225	0.00	30.344 
18:20	25.7	25.7	25.7	79	20.1	1	3	225	0.00	30.344 
18:25	25.6	25.6	25.6	80	20.3	1	2	225	0.00	30.344 
18:30	25.6	25.6	25.6	80	20.3	0	2	225	0.00	30.352 
18:35	25.3	25.3	25.3	80	20.0	0	1	225	0.00	30.352 
18:40	25.1	25.1	25.1	80	19.8	0	1	225	0.00	30.352 
18:45	25.0	25.0	25.0	81	20.0	0	2	225	0.00	30.357 
18:50	24.8	24.8	24.8	81	19.8	0	1	225	0.00	30.357 
18:55	24.7	24.7	24.7	81	19.7	0	1	225	0.00	30.357 
19:00	24.5	24.5	24.5	81	19.5	0	1	225	0.00	30.363 
19:05	24.4	24.4	24.4	81	19.4	0	3	225	0.00	30.363 
19:10	24.4	24.4	24.4	82	19.7	0	2	225	0.00	30.363 
19:15	24.1	24.1	24.1	82	19.4	0	1	225	0.00	30.371 
19:20	24.1	24.1	24.1	82	19.4	0	1	225	0.00	30.371 
19:25	23.9	23.9	23.9	82	19.2	0	1	225	0.00	30.371 
19:30	23.8	23.8	23.8	82	19.1	0	1	225	0.00	30.374 
19:35	23.8	23.8	23.8	82	19.1	0	0	---	0.00	30.374 
19:40	23.6	23.6	23.6	82	18.9	0	1	225	0.00	30.374 
19:45	23.6	23.6	23.6	82	18.9	0	2	225	0.00	30.382 
19:50	23.6	23.6	23.6	82	18.9	0	1	225	0.00	30.382 
19:55	23.6	23.6	23.6	82	18.9	0	1	225	0.00	30.382 
20:00	23.6	23.6	23.6	82	18.9	0	1	225	0.00	30.386 
20:05	23.6	23.6	23.6	82	18.9	0	2	225	0.00	30.386 
20:10	23.5	23.5	23.5	82	18.8	0	1	225	0.00	30.386 
20:15	23.3	23.3	23.3	82	18.6	0	1	225	0.00	30.390 
20:20	23.2	23.2	23.2	82	18.5	0	0	---	0.00	30.390 
20:25	23.0	23.0	23.0	82	18.3	0	1	225	0.00	30.390 
20:30	22.7	22.7	22.7	82	18.0	0	1	225	0.00	30.391 
20:35	22.5	22.5	22.5	82	17.9	0	1	225	0.00	30.391 
20:40	22.4	22.4	22.4	81	17.5	0	1	225	0.00	30.391 
20:45	22.2	22.2	22.2	81	17.3	0	1	225	0.00	30.393 
20:50	22.1	22.1	22.1	81	17.2	0	0	---	0.00	30.393 
20:55	21.9	21.9	21.9	81	17.0	0	1	225	0.00	30.393 
21:00	21.8	21.8	21.8	80	16.6	0	0	---	0.00	30.396 
21:05	21.6	21.6	21.6	79	16.1	0	1	225	0.00	30.396 
21:10	21.4	21.4	21.4	79	15.9	0	1	225	0.00	30.396 
21:15	21.3	21.3	21.3	79	15.8	0	1	225	0.00	30.399 
21:20	21.3	21.3	21.3	79	15.8	0	1	225	0.00	30.399 
21:25	21.1	21.1	21.1	78	15.3	0	1	225	0.00	30.399 
21:30	21.0	21.0	21.0	78	15.2	0	1	225	0.00	30.405 
21:35	21.0	21.0	21.0	78	15.2	0	1	225	0.00	30.405 
21:40	20.8	20.8	20.8	78	15.0	0	1	225	0.00	30.405 
21:45	20.8	20.8	20.8	79	15.3	0	1	225	0.00	30.406 
21:50	20.6	20.6	20.6	79	15.1	0	1	225	0.00	30.406 
21:55	20.5	20.5	20.5	79	15.0	0	1	225	0.00	30.406 
22:00	20.5	20.5	20.5	80	15.3	0	2	225	0.00	30.409 
22:05	20.3	20.3	20.3	80	15.1	0	1	225	0.00	30.409 
22:10	20.2	20.2	20.2	80	15.0	0	0	---	0.00	30.409 
22:15	20.0	20.0	20.0	80	14.8	0	1	225	0.00	30.414 
22:20	19.9	19.9	19.9	80	14.7	0	0	---	0.00	30.414 
22:25	19.5	19.5	19.5	80	14.4	0	0	---	0.00	30.414 
22:30	19.2	19.2	19.2	80	14.1	0	1	225	0.00	30.419 
22:35	19.1	19.1	19.1	81	14.2	0	1	225	0.00	30.419 
22:40	18.9	18.9	18.9	81	14.1	0	1	225	0.00	30.419 
22:45	18.9	18.9	18.9	81	14.1	0	1	225	0.00	30.421 
22:50	18.9	18.9	18.9	81	14.1	0	1	225	0.00	30.421 
22:55	18.9	18.9	18.9	81	14.1	0	1	225	0.00	30.421 
23:00	18.8	18.8	18.8	81	14.0	0	1	225	0.00	30.423 
23:05	18.8	18.8	18.8	81	14.0	0	0	---	0.00	30.423 
23:10	18.4	18.4	18.4	81	13.6	0	0	---	0.00	30.423 
23:15	18.3	18.3	18.3	81	13.5	0	0	---	0.00	30.425 
23:20	18.0	18.0	18.0	81	13.2	0	0	---	0.00	30.425 
23:25	17.7	17.7	17.7	81	12.9	0	0	---	0.00	30.425 
23:30	17.3	17.3	17.3	81	12.5	0	0	---	0.00	30.430 
23:35	17.2	17.2	17.2	82	12.7	0	0	---	0.00	30.430 
23:40	17.2	17.2	17.2	82	12.7	0	1	225	0.00	30.430 
23:45	17.2	17.2	17.2	83	12.9	0	0	---	0.00	30.436 
23:50	17.2	17.2	17.2	83	12.9	0	0	---	0.00	30.436 
23:55	17.0	17.0	17.0	83	12.7	0	0	---	0.00	30.436 

CoCoRaHS
IN-AL-39
A2 Web Hosting
Creative Commons License
GoDaddy
search engine by freefind advanced

loaded 2018-11-13 21:24:50 • last modified 2010-11-18 10:43:29
Privacy PolicyDisclaimer
• wx.awcolley.com is powered by PmWiki v.2002016 •
• all content (unless otherwise noted) © 2018 A W Colley